Jacksonville Naval Air Station
KNIP : now visible

Airfield :











YOU CAN JOIN US ON...

 
LOGIN :

Register | Disclaimer

   EN    FR    IT 

 









Legend :    VFR   Marginal VFR   IFR   Intensive IFR   Very Intensive IFR
Visi :
Ceiling :
>= 8 km
>= 3000ft
5 to 8 km
1000 to 3000 ft
1500m to 5 km
500 to 1000 ft
800 to 1500m
200 to 500 ft
< 800m
< 200 ft
Symbols :   Thunderstorms  Fog  Heavy snow  Heavy precipitations  Wind > 20 kt







- Airport Elevation : 21 ft


KNIP - Jacksonville Naval Air Station

CURRENT METAR :
  • 181553Z 17017KT 10SM SCT047 BKN250 28/14 A3003 RMK AO2 SLP164 T02780139

EXPIRED METARs :
  • 181453Z 18014G22KT 10SM SCT040 BKN250 26/15 A3003 RMK AO2 SLP164 T02610150 50005
  • 181353Z 17010KT 10SM SCT045 BKN250 24/17 A3003 RMK AO2 SLP165 T02440167

TAF TAF KNIP
Valid from the 18 at 15:00 until the 19 at 15:00 UTC


1815/1915 18013G20KT 9999 SCT040 BKN250 QNH2998INS
FM181800 19014G22KT 9999 BKN040 BKN250 QNH2987INS
FM190100 14012KT 9999 VCSH SCT040 BKN070 BKN250 QNH2980INS
FM190900 17015G22KT 9999 BKN030 BKN250 QNH2977INS
FM191400 18018G25KT 9999 VCTS BKN025CB BKN080 BKN250 QNH2977INS T28/1820Z T19/1911Z FN20016
KZJX FIR / North America



MET'MAP, your aeronautical weather chart ! - Copyright ORBIFLY December 2007 - Disclaimer

ORBIFLY MET'MAP TEAM :

Programming & Development : Alexandra Zaïnal
Concept & Development : Baudouin d'Aumeries
Co-Development & Prog : Marc-Olivier Méhu
Technical & hardware support : Manuel Goepfert

Contact : metmap@orbifly.com




SOURCES & CREDITS :

   NOAA       Earth
Advisory